Panther Creek, Texas
Current Conditions -  °F | °C
As of 10:53 AM on Tuesday 21 Oct 2014 (Local Time) from KDWH Reporting Station
Clear Clear  
Wind Chill: 73°   Ceiling: Unl
Heat Index: 73°   Visibility: 10mi
Dew Point: 55°   Wind: 8mph
Humidity: 53%   Direction: 90°E
Pressure: 30.08"   Gusts: NA
Location:  30.0773°N, 95.5178°W
Report Text: KDWH 211553Z 09007KT 10SM CLR 23/13 A3008 RMK AO2 SLP184 T02280128
Loading
Personal Weather Stations






























Interactive Weather Map
Tropical Storm Tracking
New forecast layout! Learn more

10-Day Weather Forecast

Advertisements
Track Severe Weather on mobile